sensor_id;sensor_type;location;lat;lon;timestamp;P1;durP1;ratioP1;P2;durP2;ratioP2
4529;SDS011;2277;51.626;7.516;2023-06-22T00:01:53;5.80;;;3.60;;
4529;SDS011;2277;51.626;7.516;2023-06-22T00:04:18;4.63;;;4.20;;
4529;SDS011;2277;51.626;7.516;2023-06-22T00:06:44;5.30;;;4.10;;
4529;SDS011;2277;51.626;7.516;2023-06-22T00:09:09;7.60;;;4.13;;
4529;SDS011;2277;51.626;7.516;2023-06-22T00:11:35;4.27;;;2.57;;
4529;SDS011;2277;51.626;7.516;2023-06-22T00:14:02;5.80;;;4.70;;
4529;SDS011;2277;51.626;7.516;2023-06-22T00:16:28;4.10;;;3.70;;
4529;SDS011;2277;51.626;7.516;2023-06-22T00:18:53;5.90;;;3.73;;
4529;SDS011;2277;51.626;7.516;2023-06-22T00:21:19;4.47;;;4.10;;
4529;SDS011;2277;51.626;7.516;2023-06-22T00:23:45;5.50;;;4.03;;
4529;SDS011;2277;51.626;7.516;2023-06-22T00:26:12;5.83;;;4.27;;
4529;SDS011;2277;51.626;7.516;2023-06-22T00:28:38;3.70;;;3.20;;
4529;SDS011;2277;51.626;7.516;2023-06-22T00:31:03;5.10;;;4.60;;
4529;SDS011;2277;51.626;7.516;2023-06-22T00:33:29;4.80;;;4.40;;
4529;SDS011;2277;51.626;7.516;2023-06-22T00:35:55;6.47;;;4.13;;
4529;SDS011;2277;51.626;7.516;2023-06-22T00:38:20;3.77;;;3.40;;
4529;SDS011;2277;51.626;7.516;2023-06-22T00:40:46;4.13;;;3.10;;
4529;SDS011;2277;51.626;7.516;2023-06-22T00:43:11;6.47;;;4.10;;
4529;SDS011;2277;51.626;7.516;2023-06-22T00:45:37;5.23;;;4.10;;
4529;SDS011;2277;51.626;7.516;2023-06-22T00:48:03;5.57;;;4.00;;
4529;SDS011;2277;51.626;7.516;2023-06-22T00:50:30;3.70;;;3.40;;
4529;SDS011;2277;51.626;7.516;2023-06-22T00:53:03;6.93;;;4.10;;
4529;SDS011;2277;51.626;7.516;2023-06-22T00:55:37;5.57;;;4.50;;
4529;SDS011;2277;51.626;7.516;2023-06-22T00:58:08;4.50;;;4.10;;
4529;SDS011;2277;51.626;7.516;2023-06-22T01:00:35;8.27;;;6.17;;
4529;SDS011;2277;51.626;7.516;2023-06-22T01:03:02;6.80;;;4.10;;
4529;SDS011;2277;51.626;7.516;2023-06-22T01:05:28;8.20;;;4.23;;
4529;SDS011;2277;51.626;7.516;2023-06-22T01:10:45;6.60;;;4.90;;
4529;SDS011;2277;51.626;7.516;2023-06-22T01:16:00;5.67;;;4.93;;
4529;SDS011;2277;51.626;7.516;2023-06-22T01:18:29;4.80;;;3.27;;
4529;SDS011;2277;51.626;7.516;2023-06-22T01:20:58;8.97;;;4.70;;
4529;SDS011;2277;51.626;7.516;2023-06-22T01:26:08;9.07;;;5.80;;
4529;SDS011;2277;51.626;7.516;2023-06-22T01:31:18;5.43;;;4.43;;
4529;SDS011;2277;51.626;7.516;2023-06-22T01:33:48;6.43;;;5.80;;
4529;SDS011;2277;51.626;7.516;2023-06-22T01:36:17;5.93;;;4.67;;
4529;SDS011;2277;51.626;7.516;2023-06-22T01:38:45;6.33;;;4.57;;
4529;SDS011;2277;51.626;7.516;2023-06-22T01:41:12;5.60;;;4.90;;
4529;SDS011;2277;51.626;7.516;2023-06-22T01:43:38;5.27;;;4.77;;
4529;SDS011;2277;51.626;7.516;2023-06-22T01:46:04;5.30;;;4.83;;
4529;SDS011;2277;51.626;7.516;2023-06-22T01:48:30;5.33;;;4.20;;
4529;SDS011;2277;51.626;7.516;2023-06-22T01:50:57;7.27;;;4.90;;
4529;SDS011;2277;51.626;7.516;2023-06-22T01:53:23;6.80;;;4.47;;
4529;SDS011;2277;51.626;7.516;2023-06-22T01:55:49;7.87;;;5.37;;
4529;SDS011;2277;51.626;7.516;2023-06-22T01:58:14;28.03;;;7.43;;
4529;SDS011;2277;51.626;7.516;2023-06-22T02:00:41;9.47;;;6.63;;
4529;SDS011;2277;51.626;7.516;2023-06-22T02:03:19;7.20;;;4.63;;
4529;SDS011;2277;51.626;7.516;2023-06-22T02:05:55;5.30;;;4.80;;
4529;SDS011;2277;51.626;7.516;2023-06-22T02:08:28;7.10;;;4.97;;
4529;SDS011;2277;51.626;7.516;2023-06-22T02:10:59;4.13;;;3.50;;
4529;SDS011;2277;51.626;7.516;2023-06-22T02:13:25;7.70;;;6.67;;
4529;SDS011;2277;51.626;7.516;2023-06-22T02:15:51;6.27;;;4.83;;
4529;SDS011;2277;51.626;7.516;2023-06-22T02:18:17;5.40;;;4.90;;
4529;SDS011;2277;51.626;7.516;2023-06-22T02:20:42;4.70;;;4.13;;
4529;SDS011;2277;51.626;7.516;2023-06-22T02:23:08;8.47;;;5.33;;
4529;SDS011;2277;51.626;7.516;2023-06-22T02:25:34;8.97;;;5.20;;
4529;SDS011;2277;51.626;7.516;2023-06-22T02:28:00;7.50;;;6.73;;
4529;SDS011;2277;51.626;7.516;2023-06-22T02:30:26;8.00;;;5.70;;
4529;SDS011;2277;51.626;7.516;2023-06-22T02:32:52;6.90;;;4.30;;
4529;SDS011;2277;51.626;7.516;2023-06-22T02:35:27;6.13;;;4.60;;
4529;SDS011;2277;51.626;7.516;2023-06-22T02:37:57;5.60;;;4.40;;
4529;SDS011;2277;51.626;7.516;2023-06-22T02:40:24;7.33;;;5.37;;
4529;SDS011;2277;51.626;7.516;2023-06-22T02:42:50;6.50;;;4.80;;
4529;SDS011;2277;51.626;7.516;2023-06-22T02:45:15;7.50;;;5.50;;
4529;SDS011;2277;51.626;7.516;2023-06-22T02:47:41;7.33;;;5.07;;
4529;SDS011;2277;51.626;7.516;2023-06-22T02:50:07;9.30;;;7.00;;
4529;SDS011;2277;51.626;7.516;2023-06-22T02:52:33;6.20;;;5.70;;
4529;SDS011;2277;51.626;7.516;2023-06-22T02:54:59;5.50;;;4.20;;
4529;SDS011;2277;51.626;7.516;2023-06-22T02:57:24;5.30;;;4.80;;
4529;SDS011;2277;51.626;7.516;2023-06-22T02:59:50;6.87;;;6.20;;
4529;SDS011;2277;51.626;7.516;2023-06-22T03:02:15;3.83;;;3.43;;
4529;SDS011;2277;51.626;7.516;2023-06-22T03:04:41;7.80;;;4.93;;
4529;SDS011;2277;51.626;7.516;2023-06-22T03:07:08;6.70;;;4.17;;
4529;SDS011;2277;51.626;7.516;2023-06-22T03:09:33;6.43;;;5.73;;
4529;SDS011;2277;51.626;7.516;2023-06-22T03:11:59;10.37;;;6.40;;
4529;SDS011;2277;51.626;7.516;2023-06-22T03:14:25;7.40;;;5.17;;
4529;SDS011;2277;51.626;7.516;2023-06-22T03:16:51;5.93;;;5.20;;
4529;SDS011;2277;51.626;7.516;2023-06-22T03:19:16;8.20;;;4.87;;
4529;SDS011;2277;51.626;7.516;2023-06-22T03:21:42;6.73;;;5.80;;
4529;SDS011;2277;51.626;7.516;2023-06-22T03:24:07;4.80;;;4.33;;
4529;SDS011;2277;51.626;7.516;2023-06-22T03:26:34;7.83;;;4.60;;
4529;SDS011;2277;51.626;7.516;2023-06-22T03:29:00;11.07;;;6.07;;
4529;SDS011;2277;51.626;7.516;2023-06-22T03:31:25;7.90;;;6.40;;
4529;SDS011;2277;51.626;7.516;2023-06-22T03:33:51;7.37;;;5.80;;
4529;SDS011;2277;51.626;7.516;2023-06-22T03:36:17;9.10;;;6.03;;
4529;SDS011;2277;51.626;7.516;2023-06-22T03:38:47;6.03;;;4.67;;
4529;SDS011;2277;51.626;7.516;2023-06-22T03:41:14;7.90;;;6.57;;
4529;SDS011;2277;51.626;7.516;2023-06-22T03:43:39;7.37;;;6.10;;
4529;SDS011;2277;51.626;7.516;2023-06-22T03:46:05;10.37;;;7.10;;
4529;SDS011;2277;51.626;7.516;2023-06-22T03:48:31;8.00;;;7.20;;
4529;SDS011;2277;51.626;7.516;2023-06-22T03:50:59;8.27;;;7.47;;
4529;SDS011;2277;51.626;7.516;2023-06-22T03:53:25;10.30;;;7.93;;
4529;SDS011;2277;51.626;7.516;2023-06-22T03:55:51;7.10;;;5.47;;
4529;SDS011;2277;51.626;7.516;2023-06-22T03:58:18;8.37;;;7.00;;
4529;SDS011;2277;51.626;7.516;2023-06-22T04:00:48;9.43;;;7.20;;
4529;SDS011;2277;51.626;7.516;2023-06-22T04:03:15;6.33;;;5.67;;
4529;SDS011;2277;51.626;7.516;2023-06-22T04:05:41;6.60;;;5.67;;
4529;SDS011;2277;51.626;7.516;2023-06-22T04:08:07;7.00;;;5.57;;
4529;SDS011;2277;51.626;7.516;2023-06-22T04:10:33;5.87;;;5.30;;
4529;SDS011;2277;51.626;7.516;2023-06-22T04:12:59;7.40;;;4.60;;
4529;SDS011;2277;51.626;7.516;2023-06-22T04:15:25;8.20;;;5.60;;
4529;SDS011;2277;51.626;7.516;2023-06-22T04:17:50;8.13;;;6.87;;
4529;SDS011;2277;51.626;7.516;2023-06-22T04:20:16;6.00;;;5.00;;
4529;SDS011;2277;51.626;7.516;2023-06-22T04:22:42;6.33;;;5.50;;
4529;SDS011;2277;51.626;7.516;2023-06-22T04:25:07;6.90;;;6.03;;
4529;SDS011;2277;51.626;7.516;2023-06-22T04:27:33;9.03;;;6.93;;
4529;SDS011;2277;51.626;7.516;2023-06-22T04:30:05;8.67;;;7.77;;
4529;SDS011;2277;51.626;7.516;2023-06-22T04:32:32;8.17;;;7.10;;
4529;SDS011;2277;51.626;7.516;2023-06-22T04:34:58;9.10;;;7.13;;
4529;SDS011;2277;51.626;7.516;2023-06-22T04:37:25;7.50;;;6.80;;
4529;SDS011;2277;51.626;7.516;2023-06-22T04:39:51;10.60;;;7.17;;
4529;SDS011;2277;51.626;7.516;2023-06-22T04:42:17;7.23;;;6.63;;
4529;SDS011;2277;51.626;7.516;2023-06-22T04:44:43;6.53;;;5.30;;
4529;SDS011;2277;51.626;7.516;2023-06-22T04:47:09;10.13;;;7.53;;
4529;SDS011;2277;51.626;7.516;2023-06-22T04:49:35;8.00;;;6.97;;
4529;SDS011;2277;51.626;7.516;2023-06-22T04:52:09;7.90;;;7.07;;
4529;SDS011;2277;51.626;7.516;2023-06-22T04:54:37;6.23;;;5.63;;
4529;SDS011;2277;51.626;7.516;2023-06-22T04:57:04;8.10;;;5.73;;
4529;SDS011;2277;51.626;7.516;2023-06-22T04:59:35;5.77;;;5.17;;
4529;SDS011;2277;51.626;7.516;2023-06-22T05:02:04;6.60;;;6.03;;
4529;SDS011;2277;51.626;7.516;2023-06-22T05:04:30;8.77;;;6.57;;
4529;SDS011;2277;51.626;7.516;2023-06-22T05:06:57;7.63;;;5.30;;
4529;SDS011;2277;51.626;7.516;2023-06-22T05:09:23;10.30;;;8.83;;
4529;SDS011;2277;51.626;7.516;2023-06-22T05:11:50;8.33;;;6.87;;
4529;SDS011;2277;51.626;7.516;2023-06-22T05:14:16;6.57;;;5.43;;
4529;SDS011;2277;51.626;7.516;2023-06-22T05:16:43;12.23;;;8.33;;
4529;SDS011;2277;51.626;7.516;2023-06-22T05:19:09;9.47;;;7.67;;
4529;SDS011;2277;51.626;7.516;2023-06-22T05:21:35;9.20;;;6.80;;
4529;SDS011;2277;51.626;7.516;2023-06-22T05:24:01;11.40;;;7.73;;
4529;SDS011;2277;51.626;7.516;2023-06-22T05:26:28;8.07;;;6.43;;
4529;SDS011;2277;51.626;7.516;2023-06-22T05:28:58;6.80;;;6.10;;
4529;SDS011;2277;51.626;7.516;2023-06-22T05:31:25;8.93;;;7.93;;
4529;SDS011;2277;51.626;7.516;2023-06-22T05:33:52;8.63;;;6.17;;
4529;SDS011;2277;51.626;7.516;2023-06-22T05:36:18;8.60;;;6.70;;
4529;SDS011;2277;51.626;7.516;2023-06-22T05:38:45;8.57;;;6.73;;
4529;SDS011;2277;51.626;7.516;2023-06-22T05:41:11;10.10;;;8.27;;
4529;SDS011;2277;51.626;7.516;2023-06-22T05:43:36;9.60;;;6.00;;
4529;SDS011;2277;51.626;7.516;2023-06-22T05:46:03;9.00;;;7.70;;
4529;SDS011;2277;51.626;7.516;2023-06-22T05:48:29;8.67;;;7.57;;
4529;SDS011;2277;51.626;7.516;2023-06-22T05:50:55;9.37;;;7.20;;
4529;SDS011;2277;51.626;7.516;2023-06-22T05:53:20;9.53;;;5.80;;
4529;SDS011;2277;51.626;7.516;2023-06-22T05:55:46;8.97;;;7.47;;
4529;SDS011;2277;51.626;7.516;2023-06-22T05:58:12;9.33;;;6.70;;
4529;SDS011;2277;51.626;7.516;2023-06-22T06:00:38;7.60;;;6.87;;
4529;SDS011;2277;51.626;7.516;2023-06-22T06:03:05;13.30;;;8.80;;
4529;SDS011;2277;51.626;7.516;2023-06-22T06:05:34;11.50;;;7.33;;
4529;SDS011;2277;51.626;7.516;2023-06-22T06:08:01;9.53;;;5.90;;
4529;SDS011;2277;51.626;7.516;2023-06-22T06:10:30;13.17;;;8.57;;
4529;SDS011;2277;51.626;7.516;2023-06-22T06:12:56;8.60;;;6.63;;
4529;SDS011;2277;51.626;7.516;2023-06-22T06:15:22;9.73;;;8.77;;
4529;SDS011;2277;51.626;7.516;2023-06-22T06:17:48;11.00;;;7.30;;
4529;SDS011;2277;51.626;7.516;2023-06-22T06:20:21;6.40;;;5.60;;
4529;SDS011;2277;51.626;7.516;2023-06-22T06:22:48;9.10;;;8.13;;
4529;SDS011;2277;51.626;7.516;2023-06-22T06:25:14;7.57;;;6.77;;
4529;SDS011;2277;51.626;7.516;2023-06-22T06:27:47;10.03;;;6.47;;
4529;SDS011;2277;51.626;7.516;2023-06-22T06:30:15;9.43;;;6.10;;
4529;SDS011;2277;51.626;7.516;2023-06-22T06:32:42;11.43;;;7.03;;
4529;SDS011;2277;51.626;7.516;2023-06-22T06:35:10;10.17;;;8.83;;
4529;SDS011;2277;51.626;7.516;2023-06-22T06:37:37;10.40;;;7.10;;
4529;SDS011;2277;51.626;7.516;2023-06-22T06:40:08;7.33;;;6.00;;
4529;SDS011;2277;51.626;7.516;2023-06-22T06:42:35;6.67;;;4.83;;
4529;SDS011;2277;51.626;7.516;2023-06-22T06:45:07;6.53;;;5.30;;
4529;SDS011;2277;51.626;7.516;2023-06-22T06:47:33;10.80;;;6.80;;
4529;SDS011;2277;51.626;7.516;2023-06-22T06:49:59;9.63;;;6.03;;
4529;SDS011;2277;51.626;7.516;2023-06-22T06:52:25;11.13;;;6.73;;
4529;SDS011;2277;51.626;7.516;2023-06-22T06:54:51;8.80;;;7.90;;
4529;SDS011;2277;51.626;7.516;2023-06-22T06:57:17;8.07;;;7.10;;
4529;SDS011;2277;51.626;7.516;2023-06-22T06:59:43;8.00;;;5.80;;
4529;SDS011;2277;51.626;7.516;2023-06-22T07:02:09;8.37;;;6.70;;
4529;SDS011;2277;51.626;7.516;2023-06-22T07:04:34;8.60;;;6.57;;
4529;SDS011;2277;51.626;7.516;2023-06-22T07:07:01;7.00;;;5.77;;
4529;SDS011;2277;51.626;7.516;2023-06-22T07:09:27;9.77;;;8.67;;
4529;SDS011;2277;51.626;7.516;2023-06-22T07:11:53;10.13;;;7.03;;
4529;SDS011;2277;51.626;7.516;2023-06-22T07:14:19;7.40;;;6.70;;
4529;SDS011;2277;51.626;7.516;2023-06-22T07:16:44;11.70;;;9.17;;
4529;SDS011;2277;51.626;7.516;2023-06-22T07:19:13;10.17;;;7.17;;
4529;SDS011;2277;51.626;7.516;2023-06-22T07:21:38;12.30;;;7.20;;
4529;SDS011;2277;51.626;7.516;2023-06-22T07:24:04;12.30;;;8.27;;
4529;SDS011;2277;51.626;7.516;2023-06-22T07:26:33;8.90;;;6.27;;
4529;SDS011;2277;51.626;7.516;2023-06-22T07:28:59;12.63;;;7.50;;
4529;SDS011;2277;51.626;7.516;2023-06-22T07:31:25;8.90;;;7.30;;
4529;SDS011;2277;51.626;7.516;2023-06-22T07:33:51;7.40;;;6.70;;
4529;SDS011;2277;51.626;7.516;2023-06-22T07:36:17;12.00;;;8.90;;
4529;SDS011;2277;51.626;7.516;2023-06-22T07:38:43;12.47;;;7.77;;
4529;SDS011;2277;51.626;7.516;2023-06-22T07:41:09;10.30;;;6.97;;
4529;SDS011;2277;51.626;7.516;2023-06-22T07:43:35;11.53;;;10.00;;
4529;SDS011;2277;51.626;7.516;2023-06-22T07:46:02;8.63;;;6.77;;
4529;SDS011;2277;51.626;7.516;2023-06-22T07:48:28;8.47;;;7.57;;
4529;SDS011;2277;51.626;7.516;2023-06-22T07:50:54;11.97;;;9.27;;
4529;SDS011;2277;51.626;7.516;2023-06-22T07:53:20;9.73;;;7.93;;
4529;SDS011;2277;51.626;7.516;2023-06-22T07:55:48;10.90;;;9.30;;
4529;SDS011;2277;51.626;7.516;2023-06-22T07:58:13;7.90;;;7.10;;
4529;SDS011;2277;51.626;7.516;2023-06-22T08:00:40;9.50;;;6.87;;
4529;SDS011;2277;51.626;7.516;2023-06-22T08:03:06;16.67;;;11.50;;
4529;SDS011;2277;51.626;7.516;2023-06-22T08:05:32;10.17;;;6.90;;
4529;SDS011;2277;51.626;7.516;2023-06-22T08:07:57;10.20;;;6.73;;
4529;SDS011;2277;51.626;7.516;2023-06-22T08:10:23;12.60;;;9.93;;
4529;SDS011;2277;51.626;7.516;2023-06-22T08:12:49;11.13;;;9.17;;
4529;SDS011;2277;51.626;7.516;2023-06-22T08:15:16;15.50;;;11.60;;
4529;SDS011;2277;51.626;7.516;2023-06-22T08:17:42;11.87;;;9.10;;
4529;SDS011;2277;51.626;7.516;2023-06-22T08:20:08;10.07;;;7.47;;
4529;SDS011;2277;51.626;7.516;2023-06-22T08:22:36;9.47;;;8.30;;
4529;SDS011;2277;51.626;7.516;2023-06-22T08:25:02;8.47;;;7.67;;
4529;SDS011;2277;51.626;7.516;2023-06-22T08:27:32;8.87;;;6.60;;
4529;SDS011;2277;51.626;7.516;2023-06-22T08:29:58;12.87;;;10.40;;
4529;SDS011;2277;51.626;7.516;2023-06-22T08:32:24;12.73;;;9.67;;
4529;SDS011;2277;51.626;7.516;2023-06-22T08:34:54;9.60;;;7.40;;
4529;SDS011;2277;51.626;7.516;2023-06-22T08:37:20;11.37;;;9.07;;
4529;SDS011;2277;51.626;7.516;2023-06-22T08:39:48;9.37;;;8.30;;
4529;SDS011;2277;51.626;7.516;2023-06-22T08:42:15;11.33;;;8.70;;
4529;SDS011;2277;51.626;7.516;2023-06-22T08:44:40;11.67;;;8.83;;
4529;SDS011;2277;51.626;7.516;2023-06-22T08:47:06;11.70;;;9.37;;
4529;SDS011;2277;51.626;7.516;2023-06-22T08:49:31;10.23;;;8.20;;
4529;SDS011;2277;51.626;7.516;2023-06-22T08:51:57;16.07;;;8.93;;
4529;SDS011;2277;51.626;7.516;2023-06-22T08:54:23;12.60;;;10.07;;
4529;SDS011;2277;51.626;7.516;2023-06-22T08:56:48;8.90;;;8.20;;
4529;SDS011;2277;51.626;7.516;2023-06-22T08:59:14;14.07;;;9.70;;
4529;SDS011;2277;51.626;7.516;2023-06-22T09:01:39;7.97;;;7.20;;
4529;SDS011;2277;51.626;7.516;2023-06-22T09:04:05;9.20;;;8.00;;
4529;SDS011;2277;51.626;7.516;2023-06-22T09:06:32;9.73;;;8.47;;
4529;SDS011;2277;51.626;7.516;2023-06-22T09:08:58;8.23;;;7.50;;
4529;SDS011;2277;51.626;7.516;2023-06-22T09:11:27;13.30;;;11.70;;
4529;SDS011;2277;51.626;7.516;2023-06-22T09:13:52;9.37;;;7.73;;
4529;SDS011;2277;51.626;7.516;2023-06-22T09:16:18;10.40;;;7.00;;
4529;SDS011;2277;51.626;7.516;2023-06-22T09:18:47;10.60;;;8.67;;
4529;SDS011;2277;51.626;7.516;2023-06-22T09:21:13;10.70;;;8.90;;
4529;SDS011;2277;51.626;7.516;2023-06-22T09:23:39;16.27;;;8.97;;
4529;SDS011;2277;51.626;7.516;2023-06-22T09:26:04;7.50;;;6.80;;
4529;SDS011;2277;51.626;7.516;2023-06-22T09:28:30;11.43;;;7.70;;
4529;SDS011;2277;51.626;7.516;2023-06-22T09:30:56;6.63;;;5.27;;
4529;SDS011;2277;51.626;7.516;2023-06-22T09:33:23;8.73;;;7.13;;
4529;SDS011;2277;51.626;7.516;2023-06-22T09:35:49;9.90;;;6.90;;
4529;SDS011;2277;51.626;7.516;2023-06-22T09:38:16;8.83;;;6.50;;
4529;SDS011;2277;51.626;7.516;2023-06-22T09:40:42;8.40;;;6.83;;
4529;SDS011;2277;51.626;7.516;2023-06-22T09:43:07;8.53;;;5.87;;
4529;SDS011;2277;51.626;7.516;2023-06-22T09:45:33;6.30;;;5.37;;
4529;SDS011;2277;51.626;7.516;2023-06-22T09:47:58;7.53;;;6.40;;
4529;SDS011;2277;51.626;7.516;2023-06-22T09:50:24;9.07;;;6.93;;
4529;SDS011;2277;51.626;7.516;2023-06-22T09:52:50;6.53;;;4.60;;
4529;SDS011;2277;51.626;7.516;2023-06-22T09:55:22;6.73;;;5.47;;
4529;SDS011;2277;51.626;7.516;2023-06-22T09:57:48;6.70;;;5.37;;
4529;SDS011;2277;51.626;7.516;2023-06-22T10:00:14;7.03;;;5.87;;
4529;SDS011;2277;51.626;7.516;2023-06-22T10:02:41;5.10;;;4.60;;
4529;SDS011;2277;51.626;7.516;2023-06-22T10:05:08;7.47;;;6.40;;
4529;SDS011;2277;51.626;7.516;2023-06-22T10:07:33;5.13;;;4.60;;
4529;SDS011;2277;51.626;7.516;2023-06-22T10:09:59;6.80;;;4.93;;
4529;SDS011;2277;51.626;7.516;2023-06-22T10:12:26;8.27;;;4.90;;
4529;SDS011;2277;51.626;7.516;2023-06-22T10:14:52;6.27;;;5.00;;
4529;SDS011;2277;51.626;7.516;2023-06-22T10:17:18;7.40;;;5.23;;
4529;SDS011;2277;51.626;7.516;2023-06-22T10:19:43;11.50;;;5.73;;
4529;SDS011;2277;51.626;7.516;2023-06-22T10:22:09;6.83;;;5.13;;
4529;SDS011;2277;51.626;7.516;2023-06-22T10:24:35;7.93;;;5.60;;
4529;SDS011;2277;51.626;7.516;2023-06-22T10:27:00;6.53;;;5.63;;
4529;SDS011;2277;51.626;7.516;2023-06-22T10:29:26;11.60;;;5.57;;
4529;SDS011;2277;51.626;7.516;2023-06-22T10:31:51;5.43;;;4.23;;
4529;SDS011;2277;51.626;7.516;2023-06-22T10:34:17;5.70;;;4.90;;
4529;SDS011;2277;51.626;7.516;2023-06-22T10:36:43;8.30;;;6.73;;
4529;SDS011;2277;51.626;7.516;2023-06-22T10:39:11;7.70;;;6.67;;
4529;SDS011;2277;51.626;7.516;2023-06-22T10:41:36;7.93;;;6.80;;
4529;SDS011;2277;51.626;7.516;2023-06-22T10:44:02;8.23;;;6.93;;
4529;SDS011;2277;51.626;7.516;2023-06-22T10:46:28;9.20;;;7.70;;
4529;SDS011;2277;51.626;7.516;2023-06-22T10:48:53;8.77;;;5.10;;
4529;SDS011;2277;51.626;7.516;2023-06-22T10:51:20;10.37;;;7.07;;
4529;SDS011;2277;51.626;7.516;2023-06-22T10:53:46;8.00;;;6.43;;
4529;SDS011;2277;51.626;7.516;2023-06-22T10:56:12;8.03;;;6.10;;
4529;SDS011;2277;51.626;7.516;2023-06-22T10:58:37;10.67;;;7.80;;
4529;SDS011;2277;51.626;7.516;2023-06-22T11:01:03;5.37;;;4.87;;
4529;SDS011;2277;51.626;7.516;2023-06-22T11:03:28;5.60;;;5.00;;
4529;SDS011;2277;51.626;7.516;2023-06-22T11:05:54;8.63;;;5.30;;
4529;SDS011;2277;51.626;7.516;2023-06-22T11:08:20;7.67;;;5.57;;
4529;SDS011;2277;51.626;7.516;2023-06-22T11:10:45;6.27;;;4.50;;
4529;SDS011;2277;51.626;7.516;2023-06-22T11:13:11;7.70;;;5.00;;
4529;SDS011;2277;51.626;7.516;2023-06-22T11:15:36;5.33;;;4.83;;
4529;SDS011;2277;51.626;7.516;2023-06-22T11:18:02;7.30;;;5.37;;
4529;SDS011;2277;51.626;7.516;2023-06-22T11:20:30;5.67;;;5.03;;
4529;SDS011;2277;51.626;7.516;2023-06-22T11:22:56;5.80;;;4.60;;
4529;SDS011;2277;51.626;7.516;2023-06-22T11:25:21;6.10;;;5.23;;
4529;SDS011;2277;51.626;7.516;2023-06-22T11:27:47;5.73;;;4.80;;
4529;SDS011;2277;51.626;7.516;2023-06-22T11:30:12;4.90;;;4.30;;
4529;SDS011;2277;51.626;7.516;2023-06-22T11:32:38;5.47;;;4.13;;
4529;SDS011;2277;51.626;7.516;2023-06-22T11:35:04;6.37;;;4.33;;
4529;SDS011;2277;51.626;7.516;2023-06-22T11:37:29;5.83;;;4.57;;
4529;SDS011;2277;51.626;7.516;2023-06-22T11:39:55;5.90;;;5.30;;
4529;SDS011;2277;51.626;7.516;2023-06-22T11:42:21;5.33;;;4.53;;
4529;SDS011;2277;51.626;7.516;2023-06-22T11:44:48;6.97;;;5.93;;
4529;SDS011;2277;51.626;7.516;2023-06-22T11:47:14;5.13;;;4.60;;
4529;SDS011;2277;51.626;7.516;2023-06-22T11:49:39;5.80;;;4.40;;
4529;SDS011;2277;51.626;7.516;2023-06-22T11:52:06;5.87;;;4.60;;
4529;SDS011;2277;51.626;7.516;2023-06-22T11:54:31;5.47;;;4.07;;
4529;SDS011;2277;51.626;7.516;2023-06-22T11:56:57;5.20;;;4.70;;
4529;SDS011;2277;51.626;7.516;2023-06-22T11:59:23;6.53;;;5.10;;
4529;SDS011;2277;51.626;7.516;2023-06-22T12:01:48;8.63;;;4.87;;
4529;SDS011;2277;51.626;7.516;2023-06-22T12:04:16;4.97;;;4.47;;
4529;SDS011;2277;51.626;7.516;2023-06-22T12:06:42;6.33;;;5.07;;
4529;SDS011;2277;51.626;7.516;2023-06-22T12:09:08;6.37;;;5.17;;
4529;SDS011;2277;51.626;7.516;2023-06-22T12:11:34;7.23;;;4.97;;
4529;SDS011;2277;51.626;7.516;2023-06-22T12:14:00;7.10;;;5.80;;
4529;SDS011;2277;51.626;7.516;2023-06-22T12:16:30;7.17;;;5.83;;
4529;SDS011;2277;51.626;7.516;2023-06-22T12:18:55;7.57;;;6.53;;
4529;SDS011;2277;51.626;7.516;2023-06-22T12:21:21;6.37;;;5.70;;
4529;SDS011;2277;51.626;7.516;2023-06-22T12:23:47;8.00;;;5.67;;
4529;SDS011;2277;51.626;7.516;2023-06-22T12:26:12;7.93;;;4.57;;
4529;SDS011;2277;51.626;7.516;2023-06-22T12:28:38;6.47;;;5.63;;
4529;SDS011;2277;51.626;7.516;2023-06-22T12:31:03;6.80;;;5.47;;
4529;SDS011;2277;51.626;7.516;2023-06-22T12:33:29;8.50;;;5.30;;
4529;SDS011;2277;51.626;7.516;2023-06-22T12:35:55;6.30;;;4.83;;
4529;SDS011;2277;51.626;7.516;2023-06-22T12:38:21;7.23;;;5.37;;
4529;SDS011;2277;51.626;7.516;2023-06-22T12:40:47;6.90;;;5.63;;
4529;SDS011;2277;51.626;7.516;2023-06-22T12:43:14;7.47;;;5.97;;
4529;SDS011;2277;51.626;7.516;2023-06-22T12:45:40;7.20;;;4.73;;
4529;SDS011;2277;51.626;7.516;2023-06-22T12:48:05;7.40;;;6.33;;
4529;SDS011;2277;51.626;7.516;2023-06-22T12:50:31;15.17;;;6.77;;
4529;SDS011;2277;51.626;7.516;2023-06-22T12:52:57;7.33;;;5.53;;
4529;SDS011;2277;51.626;7.516;2023-06-22T12:55:22;7.70;;;6.47;;
4529;SDS011;2277;51.626;7.516;2023-06-22T12:57:48;5.70;;;4.40;;
4529;SDS011;2277;51.626;7.516;2023-06-22T13:00:14;6.97;;;5.53;;
4529;SDS011;2277;51.626;7.516;2023-06-22T13:02:40;7.70;;;5.37;;
4529;SDS011;2277;51.626;7.516;2023-06-22T13:05:05;7.93;;;4.97;;
4529;SDS011;2277;51.626;7.516;2023-06-22T13:07:31;10.20;;;7.37;;
4529;SDS011;2277;51.626;7.516;2023-06-22T13:09:57;8.30;;;5.33;;
4529;SDS011;2277;51.626;7.516;2023-06-22T13:12:22;6.67;;;4.97;;
4529;SDS011;2277;51.626;7.516;2023-06-22T13:14:48;7.33;;;5.00;;
4529;SDS011;2277;51.626;7.516;2023-06-22T13:17:14;10.50;;;7.10;;
4529;SDS011;2277;51.626;7.516;2023-06-22T13:19:40;7.70;;;5.23;;
4529;SDS011;2277;51.626;7.516;2023-06-22T13:22:09;6.03;;;4.53;;
4529;SDS011;2277;51.626;7.516;2023-06-22T13:24:50;6.90;;;5.80;;
4529;SDS011;2277;51.626;7.516;2023-06-22T13:27:16;7.30;;;5.40;;
4529;SDS011;2277;51.626;7.516;2023-06-22T13:29:41;6.17;;;5.07;;
4529;SDS011;2277;51.626;7.516;2023-06-22T13:32:07;5.53;;;4.77;;
4529;SDS011;2277;51.626;7.516;2023-06-22T13:34:33;7.33;;;4.93;;
4529;SDS011;2277;51.626;7.516;2023-06-22T13:36:58;12.53;;;5.87;;
4529;SDS011;2277;51.626;7.516;2023-06-22T13:39:24;10.73;;;5.67;;
4529;SDS011;2277;51.626;7.516;2023-06-22T13:41:50;6.87;;;6.27;;
4529;SDS011;2277;51.626;7.516;2023-06-22T13:44:15;11.30;;;6.37;;
4529;SDS011;2277;51.626;7.516;2023-06-22T13:46:41;7.60;;;6.50;;
4529;SDS011;2277;51.626;7.516;2023-06-22T13:49:06;5.90;;;4.70;;
4529;SDS011;2277;51.626;7.516;2023-06-22T13:51:32;5.00;;;4.30;;
4529;SDS011;2277;51.626;7.516;2023-06-22T13:53:58;6.63;;;5.63;;
4529;SDS011;2277;51.626;7.516;2023-06-22T13:56:23;6.37;;;5.03;;
4529;SDS011;2277;51.626;7.516;2023-06-22T13:58:49;11.90;;;7.60;;
4529;SDS011;2277;51.626;7.516;2023-06-22T14:01:14;7.37;;;5.10;;
4529;SDS011;2277;51.626;7.516;2023-06-22T14:03:40;6.30;;;5.70;;
4529;SDS011;2277;51.626;7.516;2023-06-22T14:06:05;6.87;;;5.40;;
4529;SDS011;2277;51.626;7.516;2023-06-22T14:08:31;6.40;;;5.33;;
4529;SDS011;2277;51.626;7.516;2023-06-22T14:10:57;5.90;;;4.83;;
4529;SDS011;2277;51.626;7.516;2023-06-22T14:13:22;8.43;;;5.67;;
4529;SDS011;2277;51.626;7.516;2023-06-22T14:15:48;9.20;;;8.27;;
4529;SDS011;2277;51.626;7.516;2023-06-22T14:18:14;11.43;;;8.13;;
4529;SDS011;2277;51.626;7.516;2023-06-22T14:20:40;7.20;;;5.23;;
4529;SDS011;2277;51.626;7.516;2023-06-22T14:23:05;8.00;;;6.20;;
4529;SDS011;2277;51.626;7.516;2023-06-22T14:25:31;6.70;;;5.50;;
4529;SDS011;2277;51.626;7.516;2023-06-22T14:27:57;7.83;;;6.20;;
4529;SDS011;2277;51.626;7.516;2023-06-22T14:30:22;8.83;;;7.93;;
4529;SDS011;2277;51.626;7.516;2023-06-22T14:32:48;7.77;;;5.77;;
4529;SDS011;2277;51.626;7.516;2023-06-22T14:35:13;6.37;;;5.10;;
4529;SDS011;2277;51.626;7.516;2023-06-22T14:37:39;7.37;;;5.77;;
4529;SDS011;2277;51.626;7.516;2023-06-22T14:40:05;7.90;;;6.40;;
4529;SDS011;2277;51.626;7.516;2023-06-22T14:42:31;10.30;;;7.47;;
4529;SDS011;2277;51.626;7.516;2023-06-22T14:44:57;8.43;;;7.50;;
4529;SDS011;2277;51.626;7.516;2023-06-22T14:47:22;7.30;;;5.57;;
4529;SDS011;2277;51.626;7.516;2023-06-22T14:49:48;6.10;;;4.50;;
4529;SDS011;2277;51.626;7.516;2023-06-22T14:52:14;8.63;;;6.70;;
4529;SDS011;2277;51.626;7.516;2023-06-22T14:54:39;10.23;;;8.37;;
4529;SDS011;2277;51.626;7.516;2023-06-22T14:57:05;10.23;;;7.30;;
4529;SDS011;2277;51.626;7.516;2023-06-22T14:59:30;9.57;;;8.63;;
4529;SDS011;2277;51.626;7.516;2023-06-22T15:01:56;6.80;;;6.10;;
4529;SDS011;2277;51.626;7.516;2023-06-22T15:04:22;6.97;;;6.13;;
4529;SDS011;2277;51.626;7.516;2023-06-22T15:06:47;8.70;;;6.50;;
4529;SDS011;2277;51.626;7.516;2023-06-22T15:09:13;8.77;;;7.87;;
4529;SDS011;2277;51.626;7.516;2023-06-22T15:11:39;9.00;;;7.13;;
4529;SDS011;2277;51.626;7.516;2023-06-22T15:14:04;10.33;;;8.23;;
4529;SDS011;2277;51.626;7.516;2023-06-22T15:16:30;9.30;;;7.37;;
4529;SDS011;2277;51.626;7.516;2023-06-22T15:18:55;11.10;;;7.40;;